sensor_id;sensor_type;location;lat;lon;timestamp;temperature;humidity
42755;DHT22;28407;51.830;5.684;2022-12-11T00:01:45;2.50;90.00
42755;DHT22;28407;51.830;5.684;2022-12-11T00:03:46;2.40;90.00
42755;DHT22;28407;51.830;5.684;2022-12-11T00:05:47;2.50;90.00
42755;DHT22;28407;51.830;5.684;2022-12-11T00:07:48;2.40;90.20
42755;DHT22;28407;51.830;5.684;2022-12-11T00:09:48;2.50;90.00
42755;DHT22;28407;51.830;5.684;2022-12-11T00:11:49;2.50;90.00
42755;DHT22;28407;51.830;5.684;2022-12-11T00:13:50;2.50;90.00
42755;DHT22;28407;51.830;5.684;2022-12-11T00:15:50;2.50;90.00
42755;DHT22;28407;51.830;5.684;2022-12-11T00:17:51;2.50;90.00
42755;DHT22;28407;51.830;5.684;2022-12-11T00:19:51;2.50;89.90
42755;DHT22;28407;51.830;5.684;2022-12-11T00:21:52;2.50;89.90
42755;DHT22;28407;51.830;5.684;2022-12-11T00:23:53;2.50;90.00
42755;DHT22;28407;51.830;5.684;2022-12-11T00:25:54;2.50;90.00
42755;DHT22;28407;51.830;5.684;2022-12-11T00:27:55;2.50;90.00
42755;DHT22;28407;51.830;5.684;2022-12-11T00:29:55;2.50;90.00
42755;DHT22;28407;51.830;5.684;2022-12-11T00:31:56;2.50;90.00
42755;DHT22;28407;51.830;5.684;2022-12-11T00:33:56;2.50;90.00
42755;DHT22;28407;51.830;5.684;2022-12-11T00:35:57;2.50;90.00
42755;DHT22;28407;51.830;5.684;2022-12-11T00:37:58;2.50;90.00
42755;DHT22;28407;51.830;5.684;2022-12-11T00:39:58;2.50;90.00
42755;DHT22;28407;51.830;5.684;2022-12-11T00:41:59;2.50;90.00
42755;DHT22;28407;51.830;5.684;2022-12-11T00:44:00;2.50;90.00
42755;DHT22;28407;51.830;5.684;2022-12-11T00:46:00;2.50;90.00
42755;DHT22;28407;51.830;5.684;2022-12-11T00:48:01;2.50;90.00
42755;DHT22;28407;51.830;5.684;2022-12-11T00:50:03;2.50;90.00
42755;DHT22;28407;51.830;5.684;2022-12-11T00:52:04;2.50;90.00
42755;DHT22;28407;51.830;5.684;2022-12-11T00:54:04;2.50;90.00
42755;DHT22;28407;51.830;5.684;2022-12-11T00:56:16;2.50;90.10
42755;DHT22;28407;51.830;5.684;2022-12-11T00:58:17;2.50;90.10
42755;DHT22;28407;51.830;5.684;2022-12-11T01:00:18;2.50;90.10
42755;DHT22;28407;51.830;5.684;2022-12-11T01:02:18;2.50;90.10
42755;DHT22;28407;51.830;5.684;2022-12-11T01:04:19;2.50;90.10
42755;DHT22;28407;51.830;5.684;2022-12-11T01:06:25;2.50;90.10
42755;DHT22;28407;51.830;5.684;2022-12-11T01:08:27;2.50;90.10
42755;DHT22;28407;51.830;5.684;2022-12-11T01:10:27;2.50;90.10
42755;DHT22;28407;51.830;5.684;2022-12-11T01:12:28;2.50;90.20
42755;DHT22;28407;51.830;5.684;2022-12-11T01:14:29;2.50;90.20
42755;DHT22;28407;51.830;5.684;2022-12-11T01:16:29;2.50;90.20
42755;DHT22;28407;51.830;5.684;2022-12-11T01:18:30;2.50;90.20
42755;DHT22;28407;51.830;5.684;2022-12-11T01:20:31;2.50;90.20
42755;DHT22;28407;51.830;5.684;2022-12-11T01:22:31;2.40;90.20
42755;DHT22;28407;51.830;5.684;2022-12-11T01:24:32;2.50;90.20
42755;DHT22;28407;51.830;5.684;2022-12-11T01:26:33;2.50;90.20
42755;DHT22;28407;51.830;5.684;2022-12-11T01:28:34;2.50;90.30
42755;DHT22;28407;51.830;5.684;2022-12-11T01:30:35;2.50;90.30
42755;DHT22;28407;51.830;5.684;2022-12-11T01:32:36;2.40;90.20
42755;DHT22;28407;51.830;5.684;2022-12-11T01:34:36;2.40;90.20
42755;DHT22;28407;51.830;5.684;2022-12-11T01:36:37;2.40;90.30
42755;DHT22;28407;51.830;5.684;2022-12-11T01:38:38;2.40;90.30
42755;DHT22;28407;51.830;5.684;2022-12-11T01:40:48;2.40;90.30
42755;DHT22;28407;51.830;5.684;2022-12-11T01:42:49;2.40;90.30
42755;DHT22;28407;51.830;5.684;2022-12-11T01:46:50;2.40;90.30
42755;DHT22;28407;51.830;5.684;2022-12-11T01:48:51;2.40;90.30
42755;DHT22;28407;51.830;5.684;2022-12-11T01:51:02;2.40;90.40
42755;DHT22;28407;51.830;5.684;2022-12-11T01:53:07;2.50;90.40
42755;DHT22;28407;51.830;5.684;2022-12-11T01:55:09;2.40;90.40
42755;DHT22;28407;51.830;5.684;2022-12-11T01:57:11;2.40;90.40
42755;DHT22;28407;51.830;5.684;2022-12-11T01:59:15;2.40;90.40
42755;DHT22;28407;51.830;5.684;2022-12-11T02:02:40;2.40;90.40
42755;DHT22;28407;51.830;5.684;2022-12-11T02:04:10;2.40;90.40
42755;DHT22;28407;51.830;5.684;2022-12-11T02:06:38;2.40;90.40
42755;DHT22;28407;51.830;5.684;2022-12-11T02:08:39;2.40;90.40
42755;DHT22;28407;51.830;5.684;2022-12-11T02:13:24;2.40;90.40
42755;DHT22;28407;51.830;5.684;2022-12-11T02:15:36;2.40;90.40
42755;DHT22;28407;51.830;5.684;2022-12-11T02:20:07;2.40;90.40
42755;DHT22;28407;51.830;5.684;2022-12-11T02:22:20;2.50;90.40
42755;DHT22;28407;51.830;5.684;2022-12-11T02:29:00;2.50;90.50
42755;DHT22;28407;51.830;5.684;2022-12-11T02:31:11;2.50;90.40
42755;DHT22;28407;51.830;5.684;2022-12-11T02:33:12;2.50;90.40
42755;DHT22;28407;51.830;5.684;2022-12-11T02:35:16;2.50;90.40
42755;DHT22;28407;51.830;5.684;2022-12-11T02:37:21;2.50;90.40
42755;DHT22;28407;51.830;5.684;2022-12-11T02:39:24;2.50;90.40
42755;DHT22;28407;51.830;5.684;2022-12-11T02:41:27;2.50;90.40
42755;DHT22;28407;51.830;5.684;2022-12-11T02:43:30;2.50;90.40
42755;DHT22;28407;51.830;5.684;2022-12-11T02:45:33;2.60;90.40
42755;DHT22;28407;51.830;5.684;2022-12-11T02:47:34;2.60;90.50
42755;DHT22;28407;51.830;5.684;2022-12-11T02:49:36;2.60;90.50
42755;DHT22;28407;51.830;5.684;2022-12-11T02:51:42;2.60;90.50
42755;DHT22;28407;51.830;5.684;2022-12-11T02:53:44;2.60;90.40
42755;DHT22;28407;51.830;5.684;2022-12-11T02:55:48;2.60;90.40
42755;DHT22;28407;51.830;5.684;2022-12-11T02:58:04;2.60;90.40
42755;DHT22;28407;51.830;5.684;2022-12-11T03:00:07;2.60;90.40
42755;DHT22;28407;51.830;5.684;2022-12-11T03:02:10;2.60;90.40
42755;DHT22;28407;51.830;5.684;2022-12-11T03:04:12;2.60;90.40
42755;DHT22;28407;51.830;5.684;2022-12-11T03:06:16;2.60;90.50
42755;DHT22;28407;51.830;5.684;2022-12-11T03:08:17;2.60;90.50
42755;DHT22;28407;51.830;5.684;2022-12-11T03:10:18;2.60;90.50
42755;DHT22;28407;51.830;5.684;2022-12-11T03:12:23;2.60;90.50
42755;DHT22;28407;51.830;5.684;2022-12-11T03:14:25;2.60;90.40
42755;DHT22;28407;51.830;5.684;2022-12-11T03:16:34;2.60;90.40
42755;DHT22;28407;51.830;5.684;2022-12-11T03:24:03;2.70;90.40
42755;DHT22;28407;51.830;5.684;2022-12-11T03:26:07;2.70;90.40
42755;DHT22;28407;51.830;5.684;2022-12-11T03:30:33;2.70;90.40
42755;DHT22;28407;51.830;5.684;2022-12-11T03:32:41;2.70;90.40
42755;DHT22;28407;51.830;5.684;2022-12-11T03:34:49;2.70;90.40
42755;DHT22;28407;51.830;5.684;2022-12-11T03:36:53;2.70;90.40
42755;DHT22;28407;51.830;5.684;2022-12-11T03:39:11;2.70;90.40
42755;DHT22;28407;51.830;5.684;2022-12-11T03:41:17;2.70;90.40
42755;DHT22;28407;51.830;5.684;2022-12-11T03:43:21;2.70;90.40
42755;DHT22;28407;51.830;5.684;2022-12-11T03:45:24;2.70;90.40
42755;DHT22;28407;51.830;5.684;2022-12-11T03:47:26;2.80;90.40
42755;DHT22;28407;51.830;5.684;2022-12-11T03:49:33;2.80;90.40
42755;DHT22;28407;51.830;5.684;2022-12-11T03:51:35;2.80;90.40
42755;DHT22;28407;51.830;5.684;2022-12-11T03:53:37;2.80;90.40
42755;DHT22;28407;51.830;5.684;2022-12-11T03:55:38;2.80;90.40
42755;DHT22;28407;51.830;5.684;2022-12-11T03:57:40;2.80;90.40
42755;DHT22;28407;51.830;5.684;2022-12-11T03:59:41;2.80;90.40
42755;DHT22;28407;51.830;5.684;2022-12-11T04:01:42;2.90;90.40
42755;DHT22;28407;51.830;5.684;2022-12-11T04:03:42;2.90;90.30
42755;DHT22;28407;51.830;5.684;2022-12-11T04:05:44;2.90;90.30
42755;DHT22;28407;51.830;5.684;2022-12-11T04:07:45;2.90;90.30
42755;DHT22;28407;51.830;5.684;2022-12-11T04:09:46;2.90;90.30
42755;DHT22;28407;51.830;5.684;2022-12-11T04:11:47;2.90;90.30
42755;DHT22;28407;51.830;5.684;2022-12-11T04:13:47;2.90;90.30
42755;DHT22;28407;51.830;5.684;2022-12-11T04:16:08;2.90;90.30
42755;DHT22;28407;51.830;5.684;2022-12-11T04:18:09;2.90;90.30
42755;DHT22;28407;51.830;5.684;2022-12-11T04:20:28;2.90;90.30
42755;DHT22;28407;51.830;5.684;2022-12-11T04:22:47;2.90;90.30
42755;DHT22;28407;51.830;5.684;2022-12-11T04:25:06;2.90;90.30
42755;DHT22;28407;51.830;5.684;2022-12-11T04:27:07;2.90;90.30
42755;DHT22;28407;51.830;5.684;2022-12-11T04:29:08;2.90;90.30
42755;DHT22;28407;51.830;5.684;2022-12-11T04:31:18;2.90;90.30
42755;DHT22;28407;51.830;5.684;2022-12-11T04:33:19;2.90;90.30
42755;DHT22;28407;51.830;5.684;2022-12-11T04:35:20;2.90;90.30
42755;DHT22;28407;51.830;5.684;2022-12-11T04:37:21;2.90;90.30
42755;DHT22;28407;51.830;5.684;2022-12-11T04:39:22;2.90;90.30
42755;DHT22;28407;51.830;5.684;2022-12-11T04:41:22;2.90;90.30
42755;DHT22;28407;51.830;5.684;2022-12-11T04:43:23;2.90;90.30
42755;DHT22;28407;51.830;5.684;2022-12-11T04:45:24;2.90;90.30
42755;DHT22;28407;51.830;5.684;2022-12-11T04:47:24;2.90;90.30
42755;DHT22;28407;51.830;5.684;2022-12-11T04:49:25;2.90;90.30
42755;DHT22;28407;51.830;5.684;2022-12-11T04:51:26;2.90;90.30
42755;DHT22;28407;51.830;5.684;2022-12-11T04:53:27;2.90;90.30
42755;DHT22;28407;51.830;5.684;2022-12-11T04:55:28;2.90;90.30
42755;DHT22;28407;51.830;5.684;2022-12-11T04:57:29;2.90;90.20
42755;DHT22;28407;51.830;5.684;2022-12-11T04:59:33;2.90;90.20
42755;DHT22;28407;51.830;5.684;2022-12-11T05:01:34;2.90;90.30
42755;DHT22;28407;51.830;5.684;2022-12-11T05:03:34;2.90;90.30
42755;DHT22;28407;51.830;5.684;2022-12-11T05:05:35;2.90;90.30
42755;DHT22;28407;51.830;5.684;2022-12-11T05:07:36;2.90;90.30
42755;DHT22;28407;51.830;5.684;2022-12-11T05:09:37;2.90;90.30
42755;DHT22;28407;51.830;5.684;2022-12-11T05:11:38;2.90;90.30
42755;DHT22;28407;51.830;5.684;2022-12-11T05:13:38;2.90;90.30
42755;DHT22;28407;51.830;5.684;2022-12-11T05:15:39;2.90;90.30
42755;DHT22;28407;51.830;5.684;2022-12-11T05:17:40;2.90;90.20
42755;DHT22;28407;51.830;5.684;2022-12-11T05:19:40;2.90;90.20
42755;DHT22;28407;51.830;5.684;2022-12-11T05:21:41;2.90;90.20
42755;DHT22;28407;51.830;5.684;2022-12-11T05:23:42;2.90;90.20
42755;DHT22;28407;51.830;5.684;2022-12-11T05:25:43;2.90;90.20
42755;DHT22;28407;51.830;5.684;2022-12-11T05:27:50;2.90;90.20
42755;DHT22;28407;51.830;5.684;2022-12-11T05:29:50;2.90;90.20
42755;DHT22;28407;51.830;5.684;2022-12-11T05:31:51;2.90;90.20
42755;DHT22;28407;51.830;5.684;2022-12-11T05:33:52;2.90;90.20
42755;DHT22;28407;51.830;5.684;2022-12-11T05:35:53;2.90;90.50
42755;DHT22;28407;51.830;5.684;2022-12-11T05:37:54;2.90;90.20
42755;DHT22;28407;51.830;5.684;2022-12-11T05:39:54;2.90;90.20
42755;DHT22;28407;51.830;5.684;2022-12-11T05:41:55;2.90;90.20
42755;DHT22;28407;51.830;5.684;2022-12-11T05:43:55;3.00;90.20
42755;DHT22;28407;51.830;5.684;2022-12-11T05:46:08;2.90;90.20
42755;DHT22;28407;51.830;5.684;2022-12-11T05:48:08;2.90;90.20
42755;DHT22;28407;51.830;5.684;2022-12-11T05:50:09;2.90;90.10
42755;DHT22;28407;51.830;5.684;2022-12-11T05:52:10;2.90;90.20
42755;DHT22;28407;51.830;5.684;2022-12-11T05:54:12;2.90;90.10
42755;DHT22;28407;51.830;5.684;2022-12-11T05:56:15;2.90;90.10
42755;DHT22;28407;51.830;5.684;2022-12-11T05:58:16;2.90;90.10
42755;DHT22;28407;51.830;5.684;2022-12-11T06:00:17;2.90;90.10
42755;DHT22;28407;51.830;5.684;2022-12-11T06:02:18;2.90;90.10
42755;DHT22;28407;51.830;5.684;2022-12-11T06:04:18;2.90;90.10
42755;DHT22;28407;51.830;5.684;2022-12-11T06:06:19;2.90;90.10
42755;DHT22;28407;51.830;5.684;2022-12-11T06:08:19;2.90;90.10
42755;DHT22;28407;51.830;5.684;2022-12-11T06:10:20;2.90;90.10
42755;DHT22;28407;51.830;5.684;2022-12-11T06:12:21;2.90;90.10
42755;DHT22;28407;51.830;5.684;2022-12-11T06:14:21;2.90;90.10
42755;DHT22;28407;51.830;5.684;2022-12-11T06:16:23;2.90;90.10
42755;DHT22;28407;51.830;5.684;2022-12-11T06:18:24;2.90;90.00
42755;DHT22;28407;51.830;5.684;2022-12-11T06:20:24;2.90;90.00
42755;DHT22;28407;51.830;5.684;2022-12-11T06:22:25;2.90;90.00
42755;DHT22;28407;51.830;5.684;2022-12-11T06:24:25;2.90;90.00
42755;DHT22;28407;51.830;5.684;2022-12-11T06:26:27;2.90;90.00
42755;DHT22;28407;51.830;5.684;2022-12-11T06:28:27;2.90;90.00
42755;DHT22;28407;51.830;5.684;2022-12-11T06:30:28;2.90;90.00
42755;DHT22;28407;51.830;5.684;2022-12-11T06:32:29;2.90;90.00
42755;DHT22;28407;51.830;5.684;2022-12-11T06:34:30;2.90;90.00
42755;DHT22;28407;51.830;5.684;2022-12-11T06:36:31;2.90;90.00
42755;DHT22;28407;51.830;5.684;2022-12-11T06:38:31;2.90;89.90
42755;DHT22;28407;51.830;5.684;2022-12-11T06:40:32;2.90;90.00
42755;DHT22;28407;51.830;5.684;2022-12-11T06:42:33;2.90;90.00
42755;DHT22;28407;51.830;5.684;2022-12-11T06:44:34;2.90;90.00
42755;DHT22;28407;51.830;5.684;2022-12-11T06:46:34;2.90;89.90
42755;DHT22;28407;51.830;5.684;2022-12-11T06:48:35;2.90;89.90
42755;DHT22;28407;51.830;5.684;2022-12-11T06:50:37;2.90;89.90
42755;DHT22;28407;51.830;5.684;2022-12-11T06:52:38;2.90;89.80
42755;DHT22;28407;51.830;5.684;2022-12-11T06:54:38;2.90;89.80
42755;DHT22;28407;51.830;5.684;2022-12-11T06:56:39;2.90;89.80
42755;DHT22;28407;51.830;5.684;2022-12-11T06:58:40;2.90;89.80
42755;DHT22;28407;51.830;5.684;2022-12-11T07:00:41;2.90;89.80
42755;DHT22;28407;51.830;5.684;2022-12-11T07:02:42;2.90;89.80
42755;DHT22;28407;51.830;5.684;2022-12-11T07:04:43;2.90;89.70
42755;DHT22;28407;51.830;5.684;2022-12-11T07:06:43;2.90;89.70
42755;DHT22;28407;51.830;5.684;2022-12-11T07:08:44;2.90;89.70
42755;DHT22;28407;51.830;5.684;2022-12-11T07:10:45;2.90;89.70
42755;DHT22;28407;51.830;5.684;2022-12-11T07:12:45;2.90;89.70
42755;DHT22;28407;51.830;5.684;2022-12-11T07:14:46;3.00;89.70
42755;DHT22;28407;51.830;5.684;2022-12-11T07:16:46;2.90;89.60
42755;DHT22;28407;51.830;5.684;2022-12-11T07:18:49;3.00;89.60
42755;DHT22;28407;51.830;5.684;2022-12-11T07:20:50;2.90;89.60
42755;DHT22;28407;51.830;5.684;2022-12-11T07:22:50;2.90;89.60
42755;DHT22;28407;51.830;5.684;2022-12-11T07:24:53;2.90;89.50
42755;DHT22;28407;51.830;5.684;2022-12-11T07:26:54;2.90;89.50
42755;DHT22;28407;51.830;5.684;2022-12-11T07:28:57;2.90;89.40
42755;DHT22;28407;51.830;5.684;2022-12-11T07:30:58;2.90;89.50
42755;DHT22;28407;51.830;5.684;2022-12-11T07:32:59;2.80;89.40
42755;DHT22;28407;51.830;5.684;2022-12-11T07:34:59;2.80;89.40
42755;DHT22;28407;51.830;5.684;2022-12-11T07:37:00;2.90;89.50
42755;DHT22;28407;51.830;5.684;2022-12-11T07:39:01;2.90;89.50
42755;DHT22;28407;51.830;5.684;2022-12-11T07:41:05;2.90;89.40
42755;DHT22;28407;51.830;5.684;2022-12-11T07:43:06;2.90;89.40
42755;DHT22;28407;51.830;5.684;2022-12-11T07:45:07;2.80;89.30
42755;DHT22;28407;51.830;5.684;2022-12-11T07:47:08;2.80;89.30
42755;DHT22;28407;51.830;5.684;2022-12-11T07:49:08;2.80;89.30
42755;DHT22;28407;51.830;5.684;2022-12-11T07:51:29;2.80;89.20
42755;DHT22;28407;51.830;5.684;2022-12-11T07:53:30;2.80;89.20
42755;DHT22;28407;51.830;5.684;2022-12-11T07:55:31;2.80;89.20
42755;DHT22;28407;51.830;5.684;2022-12-11T07:57:31;2.80;89.20
42755;DHT22;28407;51.830;5.684;2022-12-11T07:59:32;2.80;89.20
42755;DHT22;28407;51.830;5.684;2022-12-11T08:01:34;2.80;89.20
42755;DHT22;28407;51.830;5.684;2022-12-11T08:03:35;2.80;89.20
42755;DHT22;28407;51.830;5.684;2022-12-11T08:05:36;2.80;89.20
42755;DHT22;28407;51.830;5.684;2022-12-11T08:07:37;2.80;89.20
42755;DHT22;28407;51.830;5.684;2022-12-11T08:09:37;2.90;89.20
42755;DHT22;28407;51.830;5.684;2022-12-11T08:11:38;2.90;89.10
42755;DHT22;28407;51.830;5.684;2022-12-11T08:13:39;2.90;89.10
42755;DHT22;28407;51.830;5.684;2022-12-11T08:15:40;2.90;89.10
42755;DHT22;28407;51.830;5.684;2022-12-11T08:17:41;2.90;89.00
42755;DHT22;28407;51.830;5.684;2022-12-11T08:19:41;2.90;89.00
42755;DHT22;28407;51.830;5.684;2022-12-11T08:21:42;2.90;89.00
42755;DHT22;28407;51.830;5.684;2022-12-11T08:23:43;3.00;89.00
42755;DHT22;28407;51.830;5.684;2022-12-11T08:25:43;2.90;89.00
42755;DHT22;28407;51.830;5.684;2022-12-11T08:27:44;3.00;89.00
42755;DHT22;28407;51.830;5.684;2022-12-11T08:29:44;3.00;88.90
42755;DHT22;28407;51.830;5.684;2022-12-11T08:31:46;3.00;88.80
42755;DHT22;28407;51.830;5.684;2022-12-11T08:33:47;3.10;88.80
42755;DHT22;28407;51.830;5.684;2022-12-11T08:35:48;3.10;88.80
42755;DHT22;28407;51.830;5.684;2022-12-11T08:37:49;3.10;88.80
42755;DHT22;28407;51.830;5.684;2022-12-11T08:39:49;3.10;88.70
42755;DHT22;28407;51.830;5.684;2022-12-11T08:41:50;3.20;88.80
42755;DHT22;28407;51.830;5.684;2022-12-11T08:43:51;3.20;88.70
42755;DHT22;28407;51.830;5.684;2022-12-11T08:45:54;3.20;88.70
42755;DHT22;28407;51.830;5.684;2022-12-11T08:47:54;3.20;88.70
42755;DHT22;28407;51.830;5.684;2022-12-11T08:49:55;3.20;88.60
42755;DHT22;28407;51.830;5.684;2022-12-11T08:51:56;3.20;88.60
42755;DHT22;28407;51.830;5.684;2022-12-11T08:53:58;3.20;88.60
42755;DHT22;28407;51.830;5.684;2022-12-11T08:56:01;3.20;88.60
42755;DHT22;28407;51.830;5.684;2022-12-11T08:58:01;3.20;88.60
42755;DHT22;28407;51.830;5.684;2022-12-11T09:00:03;3.30;88.70
42755;DHT22;28407;51.830;5.684;2022-12-11T09:02:04;3.20;88.60
42755;DHT22;28407;51.830;5.684;2022-12-11T09:04:04;3.30;88.60
42755;DHT22;28407;51.830;5.684;2022-12-11T09:06:07;3.30;88.60
42755;DHT22;28407;51.830;5.684;2022-12-11T09:08:08;3.30;88.50
42755;DHT22;28407;51.830;5.684;2022-12-11T09:10:09;3.30;88.50
42755;DHT22;28407;51.830;5.684;2022-12-11T09:12:10;3.30;88.50
42755;DHT22;28407;51.830;5.684;2022-12-11T09:14:10;3.30;88.50
42755;DHT22;28407;51.830;5.684;2022-12-11T09:16:13;3.30;88.40
42755;DHT22;28407;51.830;5.684;2022-12-11T09:18:14;3.30;88.40
42755;DHT22;28407;51.830;5.684;2022-12-11T09:20:15;3.30;88.40
42755;DHT22;28407;51.830;5.684;2022-12-11T09:22:16;3.30;88.40
42755;DHT22;28407;51.830;5.684;2022-12-11T09:24:16;3.30;88.40
42755;DHT22;28407;51.830;5.684;2022-12-11T09:26:17;3.30;88.40
42755;DHT22;28407;51.830;5.684;2022-12-11T09:28:18;3.30;88.40
42755;DHT22;28407;51.830;5.684;2022-12-11T09:30:19;3.30;88.40
42755;DHT22;28407;51.830;5.684;2022-12-11T09:32:19;3.20;88.30
42755;DHT22;28407;51.830;5.684;2022-12-11T09:34:20;3.30;88.50
42755;DHT22;28407;51.830;5.684;2022-12-11T09:36:21;3.20;88.40
42755;DHT22;28407;51.830;5.684;2022-12-11T09:38:22;3.20;88.40
42755;DHT22;28407;51.830;5.684;2022-12-11T09:40:22;3.30;88.40
42755;DHT22;28407;51.830;5.684;2022-12-11T09:44:42;3.30;88.40
42755;DHT22;28407;51.830;5.684;2022-12-11T09:46:45;3.30;88.30
42755;DHT22;28407;51.830;5.684;2022-12-11T09:48:47;3.30;88.30
42755;DHT22;28407;51.830;5.684;2022-12-11T09:50:50;3.30;88.30
42755;DHT22;28407;51.830;5.684;2022-12-11T09:53:26;3.30;88.30
42755;DHT22;28407;51.830;5.684;2022-12-11T09:55:50;3.30;88.20
42755;DHT22;28407;51.830;5.684;2022-12-11T10:00:39;3.30;88.20
42755;DHT22;28407;51.830;5.684;2022-12-11T10:05:46;3.30;88.10
42755;DHT22;28407;51.830;5.684;2022-12-11T10:10:18;3.30;88.10
42755;DHT22;28407;51.830;5.684;2022-12-11T10:12:33;3.30;88.10
42755;DHT22;28407;51.830;5.684;2022-12-11T10:17:17;3.30;88.20
42755;DHT22;28407;51.830;5.684;2022-12-11T10:19:28;3.20;88.20
42755;DHT22;28407;51.830;5.684;2022-12-11T10:21:38;3.20;88.20
42755;DHT22;28407;51.830;5.684;2022-12-11T10:23:51;3.20;88.30
42755;DHT22;28407;51.830;5.684;2022-12-11T10:25:57;3.20;88.30
42755;DHT22;28407;51.830;5.684;2022-12-11T10:28:12;3.20;88.30
42755;DHT22;28407;51.830;5.684;2022-12-11T10:32:34;3.20;88.20
42755;DHT22;28407;51.830;5.684;2022-12-11T10:34:41;3.20;88.20
42755;DHT22;28407;51.830;5.684;2022-12-11T10:36:43;3.20;88.20
42755;DHT22;28407;51.830;5.684;2022-12-11T10:38:45;3.20;88.20
42755;DHT22;28407;51.830;5.684;2022-12-11T10:40:50;3.10;88.20
42755;DHT22;28407;51.830;5.684;2022-12-11T10:42:54;3.10;88.20
42755;DHT22;28407;51.830;5.684;2022-12-11T10:45:03;3.20;88.30
42755;DHT22;28407;51.830;5.684;2022-12-11T10:47:08;3.20;88.30
42755;DHT22;28407;51.830;5.684;2022-12-11T10:49:24;3.20;88.30
42755;DHT22;28407;51.830;5.684;2022-12-11T10:51:33;3.20;88.30
42755;DHT22;28407;51.830;5.684;2022-12-11T10:53:34;3.20;88.20
42755;DHT22;28407;51.830;5.684;2022-12-11T10:55:46;3.20;88.20
42755;DHT22;28407;51.830;5.684;2022-12-11T10:57:56;3.30;88.20
42755;DHT22;28407;51.830;5.684;2022-12-11T10:59:59;3.20;88.10
42755;DHT22;28407;51.830;5.684;2022-12-11T11:02:01;3.20;88.00
42755;DHT22;28407;51.830;5.684;2022-12-11T11:04:31;3.20;88.00
42755;DHT22;28407;51.830;5.684;2022-12-11T11:06:33;3.20;88.10
42755;DHT22;28407;51.830;5.684;2022-12-11T11:08:45;3.10;88.20
42755;DHT22;28407;51.830;5.684;2022-12-11T11:17:16;3.10;88.20
42755;DHT22;28407;51.830;5.684;2022-12-11T11:19:28;3.10;88.10
42755;DHT22;28407;51.830;5.684;2022-12-11T11:21:29;3.10;88.20
42755;DHT22;28407;51.830;5.684;2022-12-11T11:23:33;3.10;88.20
42755;DHT22;28407;51.830;5.684;2022-12-11T11:25:34;3.10;88.20
42755;DHT22;28407;51.830;5.684;2022-12-11T11:27:43;3.10;88.20
42755;DHT22;28407;51.830;5.684;2022-12-11T11:29:44;3.10;88.30
42755;DHT22;28407;51.830;5.684;2022-12-11T11:31:44;3.10;88.30
42755;DHT22;28407;51.830;5.684;2022-12-11T11:33:54;3.10;88.20
42755;DHT22;28407;51.830;5.684;2022-12-11T11:36:02;3.10;88.20
42755;DHT22;28407;51.830;5.684;2022-12-11T11:38:16;3.10;88.20
42755;DHT22;28407;51.830;5.684;2022-12-11T11:40:27;3.10;88.20
42755;DHT22;28407;51.830;5.684;2022-12-11T11:42:42;3.10;88.20
42755;DHT22;28407;51.830;5.684;2022-12-11T11:47:29;3.10;88.20
42755;DHT22;28407;51.830;5.684;2022-12-11T11:49:45;3.20;88.20
42755;DHT22;28407;51.830;5.684;2022-12-11T11:53:50;3.20;88.20
42755;DHT22;28407;51.830;5.684;2022-12-11T11:58:17;3.30;88.10
42755;DHT22;28407;51.830;5.684;2022-12-11T12:00:25;3.30;88.00
42755;DHT22;28407;51.830;5.684;2022-12-11T12:02:26;3.20;88.00
42755;DHT22;28407;51.830;5.684;2022-12-11T12:04:32;3.20;88.00
42755;DHT22;28407;51.830;5.684;2022-12-11T12:06:44;3.20;88.00
42755;DHT22;28407;51.830;5.684;2022-12-11T12:08:57;3.20;88.00
42755;DHT22;28407;51.830;5.684;2022-12-11T12:11:20;3.20;88.10
42755;DHT22;28407;51.830;5.684;2022-12-11T12:13:42;3.20;88.10
42755;DHT22;28407;51.830;5.684;2022-12-11T12:15:56;3.20;88.20
42755;DHT22;28407;51.830;5.684;2022-12-11T12:18:38;3.20;88.10
42755;DHT22;28407;51.830;5.684;2022-12-11T12:20:45;3.20;88.00
42755;DHT22;28407;51.830;5.684;2022-12-11T12:25:24;3.20;88.00
42755;DHT22;28407;51.830;5.684;2022-12-11T12:38:53;3.30;87.90
42755;DHT22;28407;51.830;5.684;2022-12-11T12:41:21;3.30;87.90
42755;DHT22;28407;51.830;5.684;2022-12-11T12:46:10;3.30;87.90
42755;DHT22;28407;51.830;5.684;2022-12-11T12:48:15;3.30;87.90
42755;DHT22;28407;51.830;5.684;2022-12-11T12:50:19;3.30;87.90
42755;DHT22;28407;51.830;5.684;2022-12-11T12:54:28;3.40;87.90
42755;DHT22;28407;51.830;5.684;2022-12-11T12:56:30;3.40;87.80
42755;DHT22;28407;51.830;5.684;2022-12-11T13:00:40;3.40;87.90
42755;DHT22;28407;51.830;5.684;2022-12-11T13:02:50;3.40;87.90
42755;DHT22;28407;51.830;5.684;2022-12-11T13:04:59;3.40;87.80
42755;DHT22;28407;51.830;5.684;2022-12-11T13:07:19;3.40;87.80
42755;DHT22;28407;51.830;5.684;2022-12-11T13:09:25;3.40;87.80
42755;DHT22;28407;51.830;5.684;2022-12-11T13:11:33;3.50;87.70
42755;DHT22;28407;51.830;5.684;2022-12-11T13:14:21;3.50;87.60
42755;DHT22;28407;51.830;5.684;2022-12-11T13:16:24;3.50;87.60
42755;DHT22;28407;51.830;5.684;2022-12-11T13:20:32;3.50;87.50
42755;DHT22;28407;51.830;5.684;2022-12-11T13:22:33;3.50;87.50
42755;DHT22;28407;51.830;5.684;2022-12-11T13:24:45;3.50;87.60
42755;DHT22;28407;51.830;5.684;2022-12-11T13:26:47;3.50;87.60
42755;DHT22;28407;51.830;5.684;2022-12-11T13:28:48;3.50;88.30
42755;DHT22;28407;51.830;5.684;2022-12-11T13:31:00;3.40;88.20
42755;DHT22;28407;51.830;5.684;2022-12-11T13:33:13;3.50;87.70
42755;DHT22;28407;51.830;5.684;2022-12-11T13:35:15;3.50;87.60
42755;DHT22;28407;51.830;5.684;2022-12-11T13:39:30;3.50;87.50
42755;DHT22;28407;51.830;5.684;2022-12-11T13:41:34;3.50;87.50
42755;DHT22;28407;51.830;5.684;2022-12-11T13:43:37;3.40;87.50
42755;DHT22;28407;51.830;5.684;2022-12-11T13:45:44;3.50;87.60
42755;DHT22;28407;51.830;5.684;2022-12-11T13:47:45;3.40;87.60
42755;DHT22;28407;51.830;5.684;2022-12-11T13:49:52;3.40;87.60
42755;DHT22;28407;51.830;5.684;2022-12-11T13:51:56;3.40;87.60
42755;DHT22;28407;51.830;5.684;2022-12-11T13:54:06;3.50;87.60
42755;DHT22;28407;51.830;5.684;2022-12-11T13:56:19;3.60;87.60
42755;DHT22;28407;51.830;5.684;2022-12-11T13:58:21;3.60;87.50
42755;DHT22;28407;51.830;5.684;2022-12-11T14:00:24;3.60;87.50
42755;DHT22;28407;51.830;5.684;2022-12-11T14:02:33;3.60;87.40
42755;DHT22;28407;51.830;5.684;2022-12-11T14:04:36;3.60;87.30
42755;DHT22;28407;51.830;5.684;2022-12-11T14:06:38;3.60;87.30
42755;DHT22;28407;51.830;5.684;2022-12-11T14:08:41;3.60;87.30
42755;DHT22;28407;51.830;5.684;2022-12-11T14:10:44;3.60;87.30
42755;DHT22;28407;51.830;5.684;2022-12-11T14:12:55;3.60;87.40
42755;DHT22;28407;51.830;5.684;2022-12-11T14:14:58;3.60;87.30
42755;DHT22;28407;51.830;5.684;2022-12-11T14:17:01;3.60;87.30
42755;DHT22;28407;51.830;5.684;2022-12-11T14:19:05;3.60;87.30
42755;DHT22;28407;51.830;5.684;2022-12-11T14:21:06;3.70;87.30
42755;DHT22;28407;51.830;5.684;2022-12-11T14:23:21;3.60;87.30
42755;DHT22;28407;51.830;5.684;2022-12-11T14:25:25;3.70;87.30
42755;DHT22;28407;51.830;5.684;2022-12-11T14:27:27;3.60;87.20
42755;DHT22;28407;51.830;5.684;2022-12-11T14:29:31;3.70;87.30